createdAt,value
2022-09-07T00:04:41.247Z,0.00
2022-09-07T00:09:41.288Z,0.00
2022-09-07T00:14:41.089Z,0.00
2022-09-07T00:19:41.027Z,0.00
2022-09-07T00:24:40.954Z,0.00
2022-09-07T00:29:40.888Z,0.00
2022-09-07T00:34:40.820Z,0.00
2022-09-07T00:39:40.784Z,0.00
2022-09-07T00:44:40.711Z,0.00
2022-09-07T00:49:40.631Z,0.00
2022-09-07T00:54:40.581Z,0.00
2022-09-07T00:59:40.502Z,0.00
2022-09-07T01:04:40.431Z,0.00
2022-09-07T01:09:40.352Z,0.00
2022-09-07T01:14:40.311Z,0.00
2022-09-07T01:19:40.221Z,0.00
2022-09-07T01:24:40.175Z,0.00
2022-09-07T01:29:40.110Z,0.00
2022-09-07T01:34:40.045Z,0.00
2022-09-07T01:39:40.029Z,0.00
2022-09-07T01:44:39.902Z,0.00
2022-09-07T01:49:39.823Z,0.00
2022-09-07T01:54:39.775Z,0.00
2022-09-07T01:59:39.695Z,0.00
2022-09-07T02:04:39.635Z,0.00
2022-09-07T02:09:39.555Z,0.00
2022-09-07T02:14:39.512Z,0.00
2022-09-07T02:19:39.604Z,0.00
2022-09-07T02:24:39.383Z,0.00
2022-09-07T02:29:39.306Z,0.00
2022-09-07T02:34:39.234Z,0.00
2022-09-07T02:39:39.204Z,0.00
2022-09-07T02:44:39.105Z,0.00
2022-09-07T02:49:39.077Z,0.00
2022-09-07T02:54:38.991Z,0.00
2022-09-07T02:59:38.918Z,0.00
2022-09-07T03:04:38.847Z,0.00
2022-09-07T03:09:38.786Z,0.00
2022-09-07T03:14:38.718Z,0.00
2022-09-07T03:19:38.669Z,0.00
2022-09-07T03:24:38.628Z,0.00
2022-09-07T03:29:41.839Z,0.00
2022-09-07T03:34:38.478Z,0.00
2022-09-07T03:39:38.459Z,0.00
2022-09-07T03:44:38.349Z,0.00
2022-09-07T03:49:38.294Z,0.00
2022-09-07T03:54:39.691Z,0.00
2022-09-07T03:59:38.139Z,0.00
2022-09-07T04:04:38.081Z,0.00
2022-09-07T04:09:38.007Z,0.00
2022-09-07T04:14:37.953Z,5.62
2022-09-07T04:19:37.863Z,16.88
2022-09-07T04:24:37.800Z,33.75
2022-09-07T04:29:37.751Z,45.00
2022-09-07T04:34:37.682Z,73.12
2022-09-07T04:39:37.687Z,95.62
2022-09-07T04:44:37.543Z,135.00
2022-09-07T04:49:37.502Z,174.38
2022-09-07T04:54:37.426Z,225.00
2022-09-07T04:59:37.381Z,292.50
2022-09-07T05:04:37.313Z,298.12
2022-09-07T05:09:37.212Z,331.88
2022-09-07T05:14:37.196Z,365.62
2022-09-07T05:19:37.174Z,365.62
2022-09-07T05:24:37.026Z,309.38
2022-09-07T05:34:38.078Z,371.25
2022-09-07T05:39:36.877Z,421.88
2022-09-07T05:44:44.726Z,551.25
2022-09-07T05:49:37.726Z,613.12
2022-09-07T05:54:36.637Z,838.12
2022-09-07T05:59:36.614Z,2761.88
2022-09-07T06:04:36.509Z,1828.12
2022-09-07T06:14:37.611Z,2317.50
2022-09-07T06:19:36.309Z,1659.38
2022-09-07T06:24:36.264Z,4117.50
2022-09-07T06:29:36.193Z,4179.38
2022-09-07T06:34:36.143Z,3408.75
2022-09-07T06:39:36.087Z,2266.88
2022-09-07T06:44:35.985Z,3892.50
2022-09-07T06:49:35.908Z,978.75
2022-09-07T06:59:36.793Z,3706.88
2022-09-07T07:04:40.549Z,4432.50
2022-09-07T07:09:36.691Z,4370.62
2022-09-07T07:14:37.378Z,3166.88
2022-09-07T07:19:35.546Z,3240.00
2022-09-07T07:24:35.474Z,2919.38
2022-09-07T07:29:35.440Z,3054.38
2022-09-07T07:34:35.432Z,3622.50
2022-09-07T07:44:36.401Z,2925.00
2022-09-07T07:49:35.162Z,2165.62
2022-09-07T07:54:35.123Z,4860.00
2022-09-07T07:59:35.084Z,4455.00
2022-09-07T08:04:35.006Z,3718.12
2022-09-07T08:09:34.925Z,4719.38
2022-09-07T08:14:34.895Z,4550.62
2022-09-07T08:19:34.808Z,4398.75
2022-09-07T08:24:34.747Z,3909.38
2022-09-07T08:29:35.566Z,4224.38
2022-09-07T08:34:34.671Z,4308.75
2022-09-07T08:39:34.597Z,1816.88
2022-09-07T08:44:34.491Z,1760.62
2022-09-07T08:49:34.454Z,1631.25
2022-09-07T08:54:34.385Z,703.12
2022-09-07T08:59:34.316Z,697.50
2022-09-07T09:04:34.877Z,703.12
2022-09-07T09:09:35.185Z,607.50
2022-09-07T09:14:34.105Z,765.00
2022-09-07T09:19:34.041Z,916.88
2022-09-07T09:24:33.980Z,1040.62
2022-09-07T09:29:33.903Z,1029.38
2022-09-07T09:34:35.190Z,978.75
2022-09-07T09:39:33.851Z,1023.75
2022-09-07T09:44:33.714Z,1029.38
2022-09-07T09:49:33.659Z,804.38
2022-09-07T09:54:33.761Z,821.25
2022-09-07T10:04:34.469Z,669.38
2022-09-07T10:09:37.164Z,658.12
2022-09-07T10:14:33.353Z,686.25
2022-09-07T10:19:33.282Z,646.88
2022-09-07T10:24:33.221Z,618.75
2022-09-07T10:29:33.133Z,585.00
2022-09-07T10:34:33.072Z,534.38
2022-09-07T10:39:34.276Z,472.50
2022-09-07T10:44:32.956Z,405.00
2022-09-07T10:49:32.880Z,399.38
2022-09-07T10:54:33.098Z,455.62
2022-09-07T11:04:33.691Z,630.00
2022-09-07T11:09:32.631Z,714.38
2022-09-07T11:14:32.564Z,781.88
2022-09-07T11:19:36.427Z,787.50
2022-09-07T11:24:32.437Z,742.50
2022-09-07T11:29:32.427Z,686.25
2022-09-07T11:34:32.323Z,652.50
2022-09-07T11:39:32.291Z,675.00
2022-09-07T11:44:32.166Z,691.88
2022-09-07T11:49:32.098Z,725.62
2022-09-07T11:54:32.022Z,663.75
2022-09-07T11:59:36.635Z,601.88
2022-09-07T12:04:32.950Z,534.38
2022-09-07T12:09:31.839Z,556.88
2022-09-07T12:14:31.787Z,545.62
2022-09-07T12:19:31.712Z,472.50
2022-09-07T12:24:31.666Z,399.38
2022-09-07T12:29:31.596Z,320.62
2022-09-07T12:34:31.506Z,264.38
2022-09-07T12:39:31.490Z,196.88
2022-09-07T12:44:31.378Z,157.50
2022-09-07T12:49:31.317Z,129.38
2022-09-07T12:54:31.247Z,95.62
2022-09-07T12:59:31.180Z,73.12
2022-09-07T13:04:31.147Z,61.88
2022-09-07T13:09:31.222Z,56.25
2022-09-07T13:14:30.989Z,50.62
2022-09-07T13:19:30.913Z,56.25
2022-09-07T13:24:47.188Z,73.12
2022-09-07T13:29:31.786Z,123.75
2022-09-07T13:34:30.733Z,230.62
2022-09-07T13:39:30.668Z,489.38
2022-09-07T13:44:30.695Z,613.12
2022-09-07T13:49:30.530Z,675.00
2022-09-07T13:54:30.466Z,613.12
2022-09-07T13:59:30.400Z,630.00
2022-09-07T14:04:30.352Z,585.00
2022-09-07T14:09:30.272Z,461.25
2022-09-07T14:14:30.232Z,433.12
2022-09-07T14:19:30.186Z,388.12
2022-09-07T14:24:30.082Z,399.38
2022-09-07T14:29:30.051Z,388.12
2022-09-07T14:34:30.035Z,399.38
2022-09-07T14:39:29.971Z,410.62
2022-09-07T14:44:29.848Z,450.00
2022-09-07T14:49:29.759Z,382.50
2022-09-07T14:54:29.757Z,421.88
2022-09-07T14:59:29.640Z,388.12
2022-09-07T15:04:29.626Z,298.12
2022-09-07T15:09:29.513Z,286.88
2022-09-07T15:14:29.472Z,236.25
2022-09-07T15:19:29.422Z,241.88
2022-09-07T15:24:29.346Z,253.12
2022-09-07T15:29:30.097Z,258.75
2022-09-07T15:34:29.224Z,275.62
2022-09-07T15:39:29.183Z,337.50
2022-09-07T15:44:29.065Z,360.00
2022-09-07T15:49:29.011Z,365.62
2022-09-07T15:54:28.970Z,320.62
2022-09-07T15:59:28.882Z,286.88
2022-09-07T16:04:28.899Z,253.12
2022-09-07T16:09:28.784Z,230.62
2022-09-07T16:14:28.673Z,202.50
2022-09-07T16:19:28.834Z,180.00
2022-09-07T16:24:28.799Z,151.88
2022-09-07T16:29:28.495Z,129.38
2022-09-07T16:34:28.428Z,112.50
2022-09-07T16:39:28.461Z,95.62
2022-09-07T16:44:28.289Z,78.75
2022-09-07T16:49:28.229Z,67.50
2022-09-07T16:54:28.181Z,50.62
2022-09-07T16:59:28.132Z,39.38
2022-09-07T17:04:28.092Z,39.38
2022-09-07T17:09:27.978Z,33.75
2022-09-07T17:14:27.912Z,28.12
2022-09-07T17:19:29.337Z,22.50
2022-09-07T17:24:27.774Z,16.88
2022-09-07T17:29:27.916Z,11.25
2022-09-07T17:34:27.643Z,5.62
2022-09-07T17:39:27.602Z,5.62
2022-09-07T17:44:30.692Z,0.00
2022-09-07T17:49:28.446Z,0.00
2022-09-07T17:54:27.405Z,0.00
2022-09-07T18:04:28.524Z,0.00
2022-09-07T18:09:27.197Z,0.00
2022-09-07T18:14:27.159Z,0.00
2022-09-07T18:19:27.081Z,0.00
2022-09-07T18:24:26.991Z,0.00
2022-09-07T18:29:29.980Z,0.00
2022-09-07T18:34:28.091Z,0.00
2022-09-07T18:39:26.941Z,0.00
2022-09-07T18:49:27.727Z,0.00
2022-09-07T18:54:26.634Z,0.00
2022-09-07T18:59:26.583Z,0.00
2022-09-07T19:05:49.613Z,0.00
2022-09-07T19:09:27.425Z,0.00
2022-09-07T19:14:26.358Z,0.00
2022-09-07T19:19:26.400Z,0.00
2022-09-07T19:24:26.229Z,0.00
2022-09-07T19:29:26.180Z,0.00
2022-09-07T19:34:26.133Z,0.00
2022-09-07T19:39:26.262Z,0.00
2022-09-07T19:44:25.961Z,0.00
2022-09-07T19:49:25.902Z,0.00
2022-09-07T19:54:25.841Z,0.00
2022-09-07T19:59:25.774Z,0.00
2022-09-07T20:04:25.734Z,0.00
2022-09-07T20:09:25.646Z,0.00
2022-09-07T20:14:25.591Z,0.00
2022-09-07T20:19:25.525Z,0.00
2022-09-07T20:24:25.436Z,0.00
2022-09-07T20:29:28.284Z,0.00
2022-09-07T20:34:25.307Z,0.00
2022-09-07T20:39:25.261Z,0.00
2022-09-07T20:44:25.349Z,0.00
2022-09-07T20:49:25.120Z,0.00
2022-09-07T20:54:25.046Z,0.00
2022-09-07T20:59:24.981Z,0.00
2022-09-07T21:04:24.922Z,0.00
2022-09-07T21:09:24.881Z,0.00
2022-09-07T21:14:24.799Z,0.00
2022-09-07T21:19:24.730Z,0.00
2022-09-07T21:24:24.664Z,0.00
2022-09-07T21:29:24.603Z,0.00
2022-09-07T21:34:24.523Z,0.00
2022-09-07T21:39:24.455Z,0.00
2022-09-07T21:44:24.385Z,0.00
2022-09-07T21:49:24.501Z,0.00
2022-09-07T21:54:24.256Z,0.00
2022-09-07T21:59:24.207Z,0.00
2022-09-07T22:04:24.139Z,0.00
2022-09-07T22:09:24.076Z,0.00
2022-09-07T22:14:24.009Z,0.00
2022-09-07T22:19:23.954Z,0.00
2022-09-07T22:24:23.869Z,0.00
2022-09-07T22:29:23.793Z,0.00
2022-09-07T22:34:23.722Z,0.00
2022-09-07T22:39:23.653Z,0.00
2022-09-07T22:44:23.585Z,0.00
2022-09-07T22:49:23.522Z,0.00
2022-09-07T22:54:23.484Z,0.00
2022-09-07T22:59:23.403Z,0.00
2022-09-07T23:04:24.772Z,0.00
2022-09-07T23:09:23.269Z,0.00
2022-09-07T23:14:23.195Z,0.00
2022-09-07T23:19:23.135Z,0.00
2022-09-07T23:24:23.086Z,0.00
2022-09-07T23:29:23.015Z,0.00
2022-09-07T23:34:22.928Z,0.00
2022-09-07T23:39:22.857Z,0.00
2022-09-07T23:44:22.786Z,0.00
2022-09-07T23:49:22.729Z,0.00
2022-09-07T23:54:22.656Z,0.00
2022-09-07T23:59:22.699Z,0.00
